Kisatchie, Louisiana
Current Conditions -  °F | °C
As of 10:56 AM on Wednesday 26 Nov 2014 (Local Time) from KAQV Reporting Station
Clear Clear  
Wind Chill: 63°   Ceiling: Unl
Heat Index: 63°   Visibility: 10mi
Dew Point: 38°   Wind: 14mph
Humidity: 40%   Direction: 240°WSW
Pressure: 30.17"   Gusts: 24mph
Location:  31.5208°N, 93.1217°W
Report Text: KAQV 261656Z AUTO 24012G21KT 10SM CLR 17/03 A3017 RMK AO2 SLP216 T01720033
Loading
Personal Weather Stations






























Interactive Weather Map New forecast layout! Learn more

10-Day Weather Forecast

Advertisements
Track Severe Weather on mobile